Time;durP1;ratioP1;P1;durP2;ratioP2;P2;SDS_P1;SDS_P2;PMS_P1;PMS_P2;Temp;Humidity;BMP_temperature;BMP_pressure;BME280_temperature;BME280_humidity;BME280_pressure;Samples;Min_cycle;Max_cycle;Signal;HPM_P1;HPM_P2
2021/08/24 00:02:09;;;;;;;3.10;2.30;;;16.80;99.90;;;;;;5029370;28;20465;-37
2021/08/24 00:04:35;;;;;;;3.08;2.10;;;16.80;99.90;;;;;;5030310;28;20421;-40
2021/08/24 00:07:04;;;;;;;2.30;2.10;;;16.70;99.90;;;;;;5029471;28;20140;-39
2021/08/24 00:09:30;;;;;;;4.25;1.95;;;16.70;99.90;;;;;;5029478;28;20028;-40
2021/08/24 00:11:56;;;;;;;3.92;2.20;;;16.70;99.90;;;;;;5028718;28;20033;-38
2021/08/24 00:14:21;;;;;;;2.53;1.90;;;16.70;99.90;;;;;;5029542;28;20498;-39
2021/08/24 00:16:47;;;;;;;2.95;1.90;;;16.70;99.90;;;;;;5029092;28;20060;-39
2021/08/24 00:19:15;;;;;;;3.38;2.17;;;16.70;99.90;;;;;;5029051;28;20022;-37
2021/08/24 00:21:41;;;;;;;2.95;2.05;;;16.70;99.90;;;;;;5028956;28;20108;-39
2021/08/24 00:24:11;;;;;;;3.97;2.00;;;16.60;99.90;;;;;;5029585;28;20021;-36
2021/08/24 00:26:37;;;;;;;3.42;2.10;;;16.60;99.90;;;;;;5026362;28;20083;-37
2021/08/24 00:29:03;;;;;;;5.30;2.60;;;16.60;99.90;;;;;;5028587;28;20469;-40
2021/08/24 00:31:29;;;;;;;2.85;2.03;;;16.60;99.90;;;;;;5029146;28;20026;-39
2021/08/24 00:33:55;;;;;;;3.90;2.30;;;16.50;99.90;;;;;;5028733;28;20408;-41
2021/08/24 00:36:21;;;;;;;3.90;2.20;;;16.50;99.90;;;;;;5027973;28;20598;-39
2021/08/24 00:38:47;;;;;;;3.60;2.20;;;16.50;99.90;;;;;;5028252;28;20026;-41
2021/08/24 00:41:13;;;;;;;2.83;2.28;;;16.40;99.90;;;;;;5028838;28;20025;-39
2021/08/24 00:43:42;;;;;;;4.05;2.30;;;16.50;99.90;;;;;;5018830;28;20390;-40
2021/08/24 00:46:31;;;;;;;5.38;2.20;;;16.40;99.90;;;;;;5021213;28;20013;-41
2021/08/24 00:48:59;;;;;;;4.28;2.20;;;16.40;99.90;;;;;;5028202;28;20121;-40
2021/08/24 00:51:26;;;;;;;4.70;2.30;;;16.40;99.90;;;;;;5028457;28;20231;-39
2021/08/24 00:53:51;;;;;;;5.60;2.58;;;16.40;99.90;;;;;;5028339;28;20461;-41
2021/08/24 00:56:18;;;;;;;5.55;2.45;;;16.40;99.90;;;;;;5028302;28;20017;-35
2021/08/24 00:58:44;;;;;;;6.05;2.50;;;16.40;99.90;;;;;;5027628;28;20106;-38
2021/08/24 01:01:10;;;;;;;2.92;2.20;;;16.30;99.90;;;;;;5028309;28;20021;-35
2021/08/24 01:03:42;;;;;;;3.17;2.42;;;16.30;99.90;;;;;;5028702;28;20067;-41
2021/08/24 01:06:34;;;;;;;3.93;2.20;;;16.30;99.90;;;;;;5028493;28;20036;-37
2021/08/24 01:09:18;;;;;;;4.70;2.45;;;16.30;99.90;;;;;;5028270;28;20314;-41
2021/08/24 01:11:50;;;;;;;5.45;2.70;;;16.30;99.90;;;;;;5027869;28;20188;-40
2021/08/24 01:14:38;;;;;;;4.30;2.55;;;16.20;99.90;;;;;;5028087;28;20057;-39
2021/08/24 01:17:20;;;;;;;4.63;2.63;;;16.20;99.90;;;;;;5027971;28;20552;-35
2021/08/24 01:19:54;;;;;;;6.47;2.85;;;16.20;99.90;;;;;;5027871;28;20036;-38
2021/08/24 01:22:39;;;;;;;5.20;2.80;;;16.20;99.90;;;;;;5028456;28;20033;-38
2021/08/24 01:25:13;;;;;;;3.60;2.53;;;16.20;99.90;;;;;;5027222;28;20099;-41
2021/08/24 01:27:58;;;;;;;3.40;2.42;;;16.10;99.90;;;;;;5028534;28;20461;-38
2021/08/24 01:30:42;;;;;;;4.05;2.60;;;16.10;99.90;;;;;;5028551;28;20553;-36
2021/08/24 01:33:13;;;;;;;5.18;2.67;;;16.00;99.90;;;;;;5027558;28;20026;-38
2021/08/24 01:36:16;;;;;;;4.15;2.60;;;16.00;99.90;;;;;;5008660;28;20046;-38
2021/08/24 01:38:45;;;;;;;4.13;2.75;;;16.00;99.90;;;;;;5027095;28;20088;-40
2021/08/24 01:41:10;;;;;;;4.50;2.58;;;16.00;99.90;;;;;;5027723;28;20140;-38
2021/08/24 01:43:58;;;;;;;5.32;2.97;;;16.00;99.90;;;;;;5027824;28;20117;-38
2021/08/24 01:46:40;;;;;;;3.65;2.78;;;16.00;99.90;;;;;;5028445;28;20029;-38
2021/08/24 01:49:06;;;;;;;4.28;2.90;;;15.90;99.90;;;;;;5027887;28;20477;-36
2021/08/24 01:51:44;;;;;;;5.93;3.20;;;15.90;99.90;;;;;;5028369;28;20443;-38
2021/08/24 01:54:25;;;;;;;5.65;3.20;;;15.80;99.90;;;;;;5027225;28;20040;-36
2021/08/24 01:56:53;;;;;;;5.85;3.47;;;15.80;99.90;;;;;;5027986;28;20094;-37
2021/08/24 01:59:34;;;;;;;4.63;2.95;;;15.70;99.90;;;;;;5027819;28;20022;-37
2021/08/24 02:02:08;;;;;;;3.47;2.85;;;15.80;99.90;;;;;;5026818;28;20025;-38
2021/08/24 02:04:51;;;;;;;4.05;2.90;;;15.70;99.90;;;;;;5028630;28;20377;-40
2021/08/24 02:07:20;;;;;;;5.95;3.22;;;15.70;99.90;;;;;;5027891;28;20588;-39
2021/08/24 02:09:48;;;;;;;5.75;3.00;;;15.70;99.90;;;;;;5027772;28;20033;-39
2021/08/24 02:12:17;;;;;;;5.03;3.20;;;15.60;99.90;;;;;;5028575;28;20454;-39
2021/08/24 02:14:44;;;;;;;4.88;3.20;;;15.60;99.90;;;;;;5026731;28;20076;-38
2021/08/24 02:17:13;;;;;;;6.95;3.42;;;15.70;99.90;;;;;;5027848;28;20045;-40
2021/08/24 02:19:58;;;;;;;7.55;3.28;;;15.60;99.90;;;;;;5027310;28;20021;-38
2021/08/24 02:22:37;;;;;;;5.45;3.35;;;15.70;99.90;;;;;;5028244;28;20022;-39
2021/08/24 02:25:13;;;;;;;5.40;3.05;;;15.60;99.90;;;;;;5027843;28;20047;-37
2021/08/24 02:27:46;;;;;;;4.95;3.72;;;15.50;99.90;;;;;;5028175;28;20076;-38
2021/08/24 02:30:12;;;;;;;6.05;3.05;;;15.50;99.90;;;;;;5027583;28;20060;-35
2021/08/24 02:32:45;;;;;;;4.22;3.00;;;15.50;99.90;;;;;;5028590;28;20037;-40
2021/08/24 02:35:40;;;;;;;5.95;3.10;;;15.50;99.90;;;;;;5029278;28;20108;-35
2021/08/24 02:38:14;;;;;;;5.75;3.67;;;15.50;99.90;;;;;;5011669;28;20303;-35
2021/08/24 02:41:08;;;;;;;5.28;3.92;;;15.50;99.90;;;;;;5029211;28;20036;-37
2021/08/24 02:43:35;;;;;;;6.00;3.70;;;15.40;99.90;;;;;;5031464;28;20032;-40
2021/08/24 02:46:11;;;;;;;5.13;3.60;;;15.40;99.90;;;;;;5030153;28;20512;-39
2021/08/24 02:48:50;;;;;;;5.00;3.45;;;15.40;99.90;;;;;;5031002;28;20064;-38
2021/08/24 02:51:19;;;;;;;5.88;3.53;;;15.40;99.90;;;;;;5029499;28;20366;-39
2021/08/24 02:53:48;;;;;;;7.03;3.65;;;15.40;99.90;;;;;;5030754;28;20026;-37
2021/08/24 02:56:14;;;;;;;9.40;3.75;;;15.30;99.90;;;;;;5030100;28;20022;-40
2021/08/24 02:58:39;;;;;;;4.80;3.42;;;15.30;99.90;;;;;;5030910;28;20040;-38
2021/08/24 03:01:05;;;;;;;4.80;3.55;;;15.30;99.90;;;;;;5030141;28;20088;-38
2021/08/24 03:03:31;;;;;;;4.90;3.38;;;15.30;99.90;;;;;;5030360;28;20083;-37
2021/08/24 03:05:59;;;;;;;5.22;4.05;;;15.20;99.90;;;;;;5030216;28;20022;-38
2021/08/24 03:08:25;;;;;;;4.70;3.35;;;15.30;99.90;;;;;;5031243;28;20057;-36
2021/08/24 03:10:52;;;;;;;5.55;3.85;;;15.20;99.90;;;;;;5030177;28;20029;-38
2021/08/24 03:13:43;;;;;;;7.93;4.13;;;15.20;99.90;;;;;;5031124;28;20440;-40
2021/08/24 03:16:26;;;;;;;5.10;3.80;;;15.20;99.90;;;;;;5030825;28;20500;-39
2021/08/24 03:19:00;;;;;;;6.03;4.45;;;15.20;99.90;;;;;;5031187;28;20045;-38
2021/08/24 03:21:29;;;;;;;5.43;3.88;;;15.10;99.90;;;;;;5030757;28;20143;-37
2021/08/24 03:23:55;;;;;;;5.13;3.72;;;15.10;99.90;;;;;;5030488;28;20021;-39
2021/08/24 03:26:25;;;;;;;5.80;4.35;;;15.10;99.90;;;;;;5031196;28;20017;-39
2021/08/24 03:28:51;;;;;;;7.22;4.43;;;15.10;99.90;;;;;;5030391;28;20105;-39
2021/08/24 03:31:18;;;;;;;5.35;4.45;;;15.10;99.90;;;;;;5031065;28;20105;-40
2021/08/24 03:33:43;;;;;;;7.88;4.93;;;15.00;99.90;;;;;;5031156;28;20714;-38
2021/08/24 03:36:13;;;;;;;7.10;4.82;;;15.00;99.90;;;;;;5030950;28;20029;-39
2021/08/24 03:38:41;;;;;;;7.32;5.18;;;15.00;99.90;;;;;;5030202;28;20029;-36
2021/08/24 03:41:11;;;;;;;6.85;4.90;;;15.00;99.90;;;;;;5030217;28;20103;-37
2021/08/24 03:43:37;;;;;;;5.72;4.78;;;15.00;99.90;;;;;;5019952;28;20527;-32
2021/08/24 03:46:03;;;;;;;8.68;4.97;;;15.00;99.90;;;;;;5029397;28;20467;-38
2021/08/24 03:48:29;;;;;;;5.35;4.63;;;15.00;99.90;;;;;;5030952;28;20028;-37
2021/08/24 03:50:54;;;;;;;6.05;5.10;;;15.00;99.90;;;;;;5030061;28;20438;-37
2021/08/24 03:53:20;;;;;;;8.32;5.05;;;15.00;99.90;;;;;;5029383;28;20030;-37
2021/08/24 03:55:45;;;;;;;8.02;6.00;;;15.00;99.90;;;;;;5030336;28;20100;-40
2021/08/24 03:58:13;;;;;;;7.47;5.00;;;14.90;99.90;;;;;;5029950;28;20045;-40
2021/08/24 04:00:45;;;;;;;6.90;4.18;;;14.90;99.90;;;;;;5029346;28;20168;-39
2021/08/24 04:03:11;;;;;;;5.03;4.45;;;14.90;99.90;;;;;;5029980;28;20025;-35
2021/08/24 04:05:37;;;;;;;6.88;4.75;;;14.90;99.90;;;;;;5029765;28;20022;-37
2021/08/24 04:08:02;;;;;;;6.07;4.78;;;14.90;99.90;;;;;;5029369;28;20389;-38
2021/08/24 04:10:28;;;;;;;10.15;4.55;;;14.90;99.90;;;;;;5030714;28;20022;-41
2021/08/24 04:12:53;;;;;;;6.13;4.63;;;14.90;99.90;;;;;;5029553;28;20021;-40
2021/08/24 04:15:19;;;;;;;7.78;5.03;;;14.90;99.90;;;;;;5029940;28;20053;-38
2021/08/24 04:17:45;;;;;;;7.00;4.70;;;14.90;99.90;;;;;;5029910;28;20516;-38
2021/08/24 04:20:14;;;;;;;8.90;4.53;;;14.90;99.90;;;;;;5029841;28;20109;-37
2021/08/24 04:22:46;;;;;;;7.95;5.15;;;14.90;99.90;;;;;;5028770;28;20040;-36
2021/08/24 04:25:12;;;;;;;6.40;5.28;;;14.90;99.90;;;;;;5030694;28;20025;-37
2021/08/24 04:27:38;;;;;;;7.45;4.68;;;14.90;99.90;;;;;;5028717;28;20071;-37
2021/08/24 04:30:05;;;;;;;8.90;5.78;;;14.80;99.90;;;;;;5029653;28;20022;-39
2021/08/24 04:32:34;;;;;;;6.57;5.60;;;14.80;99.90;;;;;;5029828;28;20057;-39
2021/08/24 04:34:59;;;;;;;7.38;5.60;;;14.80;99.90;;;;;;5029068;28;20013;-37
2021/08/24 04:37:25;;;;;;;7.30;5.35;;;14.80;99.90;;;;;;5029882;28;20100;-38
2021/08/24 04:39:50;;;;;;;8.15;6.03;;;14.80;99.90;;;;;;5029890;28;20136;-40
2021/08/24 04:42:16;;;;;;;10.60;5.90;;;14.80;99.90;;;;;;5029059;28;20453;-38
2021/08/24 04:44:42;;;;;;;6.40;5.22;;;14.80;99.90;;;;;;5029582;28;20024;-38
2021/08/24 04:47:08;;;;;;;8.68;5.88;;;14.80;99.90;;;;;;5030301;28;20063;-40
2021/08/24 04:49:33;;;;;;;8.00;5.43;;;14.80;99.90;;;;;;5029257;28;20051;-41
2021/08/24 04:52:00;;;;;;;7.90;5.95;;;14.80;99.90;;;;;;5028794;28;20025;-38
2021/08/24 04:54:25;;;;;;;9.60;6.13;;;14.80;99.90;;;;;;5028905;28;20025;-35
2021/08/24 04:56:54;;;;;;;6.82;5.20;;;14.80;99.90;;;;;;5028923;28;20033;-38
2021/08/24 04:59:19;;;;;;;7.68;5.68;;;14.80;99.90;;;;;;5029272;28;20060;-40
2021/08/24 05:01:47;;;;;;;8.02;5.88;;;14.80;99.90;;;;;;5029430;28;20061;-40
2021/08/24 05:04:13;;;;;;;9.52;5.88;;;14.80;99.90;;;;;;5027895;28;20024;-39
2021/08/24 05:06:38;;;;;;;8.00;6.05;;;14.80;99.90;;;;;;5028467;28;20112;-40
2021/08/24 05:09:04;;;;;;;6.75;5.22;;;14.80;99.90;;;;;;5028705;28;20071;-39
2021/08/24 05:11:29;;;;;;;9.05;5.82;;;14.80;99.90;;;;;;5029048;28;20053;-38
2021/08/24 05:13:55;;;;;;;13.10;6.40;;;14.80;99.90;;;;;;5028257;28;20026;-39
2021/08/24 05:16:20;;;;;;;8.05;5.60;;;14.80;99.90;;;;;;5029658;28;20076;-40
2021/08/24 05:18:49;;;;;;;7.07;5.90;;;14.90;99.90;;;;;;5028435;28;20041;-40
2021/08/24 05:21:20;;;;;;;10.10;6.93;;;14.90;99.90;;;;;;5028946;28;20024;-38
2021/08/24 05:23:46;;;;;;;9.60;6.10;;;14.90;99.90;;;;;;5028917;28;20116;-39
2021/08/24 05:26:16;;;;;;;10.52;6.60;;;14.90;99.90;;;;;;5028764;28;20108;-40
2021/08/24 05:28:42;;;;;;;10.95;6.22;;;14.90;99.90;;;;;;5029584;28;20026;-39
2021/08/24 05:31:08;;;;;;;8.18;5.75;;;14.90;99.90;;;;;;5028220;28;20100;-38
2021/08/24 05:33:33;;;;;;;8.38;5.60;;;14.90;99.90;;;;;;5029058;28;20556;-34
2021/08/24 05:36:00;;;;;;;8.40;5.60;;;14.90;99.90;;;;;;5027963;28;20028;-36
2021/08/24 05:38:28;;;;;;;8.80;6.05;;;14.90;99.90;;;;;;5028555;28;20037;-34
2021/08/24 05:40:55;;;;;;;12.95;7.30;;;15.00;99.90;;;;;;5028638;28;20028;-37
2021/08/24 05:43:22;;;;;;;6.05;5.38;;;15.00;99.90;;;;;;5028247;28;20613;-38
2021/08/24 05:45:54;;;;;;;7.25;5.35;;;15.00;99.90;;;;;;5027710;28;20045;-37
2021/08/24 05:48:20;;;;;;;;;;;15.10;99.90;;;;;;5029436;28;20367;-40
2021/08/24 05:50:45;;;;;;;9.57;5.90;;;15.10;99.90;;;;;;5028908;28;20406;-37
2021/08/24 05:53:11;;;;;;;9.15;6.65;;;15.10;99.90;;;;;;5025640;28;20026;-39
2021/08/24 05:55:38;;;;;;;8.32;5.97;;;15.20;99.90;;;;;;5026646;28;20026;-35
2021/08/24 05:58:04;;;;;;;10.27;6.30;;;15.10;99.90;;;;;;5027305;28;20038;-35
2021/08/24 06:00:29;;;;;;;9.88;5.60;;;15.20;99.90;;;;;;5027504;28;20530;-35
2021/08/24 06:02:55;;;;;;;8.30;5.95;;;15.20;99.90;;;;;;5027079;28;20029;-38
2021/08/24 06:05:21;;;;;;;9.73;5.80;;;15.30;99.90;;;;;;5028766;28;20504;-38
2021/08/24 06:07:46;;;;;;;10.43;6.00;;;15.30;99.90;;;;;;5026008;28;20492;-39
2021/08/24 06:10:12;;;;;;;8.55;6.05;;;15.40;99.90;;;;;;5030222;28;20017;-38
2021/08/24 06:12:37;;;;;;;9.60;5.57;;;15.40;99.90;;;;;;5030900;28;20481;-39
2021/08/24 06:15:05;;;;;;;8.75;6.43;;;15.40;99.90;;;;;;5030950;28;20048;-37
2021/08/24 06:17:31;;;;;;;7.63;5.40;;;15.50;99.90;;;;;;5031359;28;20567;-34
2021/08/24 06:19:56;;;;;;;9.65;6.82;;;15.60;99.90;;;;;;5030967;28;20025;-36
2021/08/24 06:22:22;;;;;;;9.73;6.35;;;15.60;99.90;;;;;;5030805;28;20022;-38
2021/08/24 06:24:47;;;;;;;9.82;5.95;;;15.60;99.90;;;;;;5031025;28;20378;-37
2021/08/24 06:27:13;;;;;;;10.50;6.38;;;15.70;99.90;;;;;;5031498;28;20021;-36
2021/08/24 06:29:38;;;;;;;8.73;5.78;;;15.70;99.90;;;;;;5032295;28;20025;-36
2021/08/24 06:32:05;;;;;;;8.38;5.60;;;15.80;99.90;;;;;;5031663;28;20025;-39
2021/08/24 06:34:33;;;;;;;8.27;6.00;;;15.80;99.90;;;;;;5032364;28;20022;-41
2021/08/24 06:36:58;;;;;;;9.95;6.00;;;15.80;99.90;;;;;;5032067;28;20036;-39
2021/08/24 06:39:24;;;;;;;7.63;5.30;;;15.90;99.90;;;;;;5032068;28;20100;-40
2021/08/24 06:41:51;;;;;;;7.30;5.65;;;15.90;99.90;;;;;;5031743;28;20045;-38
2021/08/24 06:44:17;;;;;;;8.05;5.97;;;16.00;99.90;;;;;;5031576;28;20033;-40
2021/08/24 06:46:42;;;;;;;10.60;6.32;;;16.00;99.90;;;;;;5032664;28;20026;-36
2021/08/24 06:49:08;;;;;;;10.57;5.80;;;16.10;99.90;;;;;;5031419;28;20052;-35
2021/08/24 06:51:34;;;;;;;8.82;5.72;;;16.10;99.90;;;;;;5031916;28;20060;-40
2021/08/24 06:54:02;;;;;;;8.85;5.38;;;16.20;99.90;;;;;;5030326;28;20539;-41
2021/08/24 06:56:27;;;;;;;10.32;5.07;;;16.30;99.90;;;;;;5031240;28;20113;-37
2021/08/24 06:58:53;;;;;;;10.90;6.63;;;16.30;99.90;;;;;;5030727;28;20124;-37
2021/08/24 07:01:24;;;;;;;10.15;6.30;;;16.30;99.90;;;;;;5031417;28;20060;-41
2021/08/24 07:03:51;;;;;;;8.25;5.80;;;16.40;99.90;;;;;;5030675;28;20025;-40
2021/08/24 07:06:17;;;;;;;8.38;5.78;;;16.40;99.90;;;;;;5031559;28;20071;-40
2021/08/24 07:08:42;;;;;;;9.52;7.15;;;16.40;99.90;;;;;;5030478;28;20095;-37
2021/08/24 07:11:09;;;;;;;11.20;5.35;;;16.50;99.90;;;;;;5031188;28;20465;-36
2021/08/24 07:13:35;;;;;;;5.35;4.72;;;16.50;99.90;;;;;;5031256;28;20461;-40
2021/08/24 07:16:04;;;;;;;10.75;6.40;;;16.50;99.90;;;;;;5030398;28;20065;-35
2021/08/24 07:18:30;;;;;;;7.82;6.18;;;16.60;99.90;;;;;;5030769;28;20060;-39
2021/08/24 07:20:57;;;;;;;8.88;5.75;;;16.60;99.90;;;;;;5029376;28;20474;-37
2021/08/24 07:23:23;;;;;;;7.40;5.25;;;16.60;99.90;;;;;;5030774;28;20068;-40
2021/08/24 07:25:49;;;;;;;9.68;6.40;;;16.70;99.90;;;;;;5030513;28;20438;-38
2021/08/24 07:28:15;;;;;;;8.18;5.90;;;16.70;99.90;;;;;;5031014;28;20029;-36
2021/08/24 07:30:48;;;;;;;6.85;5.50;;;16.70;99.90;;;;;;5030087;28;20461;-40
2021/08/24 07:33:23;;;;;;;5.78;4.65;;;16.80;99.90;;;;;;5031603;28;20030;-34
2021/08/24 07:35:51;;;;;;;5.85;5.22;;;16.80;99.90;;;;;;5029382;28;20053;-39
2021/08/24 07:38:20;;;;;;;8.95;6.55;;;16.80;99.90;;;;;;5031055;28;20083;-39
2021/08/24 07:40:47;;;;;;;10.05;6.43;;;16.90;99.90;;;;;;5030799;28;20030;-39
2021/08/24 07:43:13;;;;;;;8.52;6.30;;;16.90;99.90;;;;;;5031374;28;20026;-37
2021/08/24 07:45:39;;;;;;;8.65;5.78;;;16.90;99.90;;;;;;5029580;28;20025;-38
2021/08/24 07:48:05;;;;;;;8.60;5.22;;;17.00;99.90;;;;;;5029930;28;20021;-38
2021/08/24 07:50:31;;;;;;;6.18;5.43;;;17.00;99.90;;;;;;5031111;28;20079;-38
2021/08/24 07:52:57;;;;;;;9.52;5.50;;;17.00;99.90;;;;;;5030448;28;20469;-38
2021/08/24 07:55:22;;;;;;;9.13;6.10;;;17.10;99.90;;;;;;5030664;28;20105;-39
2021/08/24 07:57:48;;;;;;;8.80;5.88;;;17.10;99.90;;;;;;5030496;28;20068;-39
2021/08/24 08:00:14;;;;;;;10.48;5.88;;;17.20;99.90;;;;;;5030729;28;20057;-37
2021/08/24 08:02:40;;;;;;;8.57;5.90;;;17.20;99.90;;;;;;5030762;28;20453;-39
2021/08/24 08:05:06;;;;;;;6.30;4.90;;;17.30;99.90;;;;;;5030637;28;20476;-39
2021/08/24 08:07:32;;;;;;;7.25;5.10;;;17.30;99.90;;;;;;5030866;28;20369;-38
2021/08/24 08:09:58;;;;;;;5.90;4.72;;;17.30;99.90;;;;;;5029870;28;20021;-38
2021/08/24 08:12:23;;;;;;;6.47;4.40;;;17.40;99.90;;;;;;5031254;28;20029;-38
2021/08/24 08:14:49;;;;;;;6.70;4.60;;;17.40;99.90;;;;;;5029910;28;20437;-39
2021/08/24 08:17:17;;;;;;;6.10;4.57;;;17.50;99.90;;;;;;5030664;28;20563;-40
2021/08/24 08:19:43;;;;;;;8.02;4.10;;;17.50;99.90;;;;;;5029993;28;20022;-39
2021/08/24 08:22:09;;;;;;;5.28;3.55;;;17.60;99.90;;;;;;5028144;28;20192;-37
2021/08/24 08:24:35;;;;;;;4.68;3.72;;;17.70;99.90;;;;;;5030532;28;20079;-37
2021/08/24 08:27:01;;;;;;;4.43;3.60;;;17.70;99.90;;;;;;5029057;28;20033;-41
2021/08/24 08:29:26;;;;;;;6.35;3.92;;;17.80;99.90;;;;;;5030446;28;20029;-37
2021/08/24 08:31:57;;;;;;;4.90;3.50;;;17.80;99.90;;;;;;5029529;28;20112;-41
2021/08/24 08:34:23;;;;;;;6.80;3.90;;;17.90;99.90;;;;;;5029561;28;20029;-39
2021/08/24 08:36:49;;;;;;;5.10;3.90;;;18.00;99.90;;;;;;5032946;28;20376;-39
2021/08/24 08:39:15;;;;;;;4.65;3.20;;;18.00;99.90;;;;;;5030088;28;20401;-39
2021/08/24 08:42:19;;;;;;;5.68;3.53;;;18.00;99.90;;;;;;5029493;28;20118;-39
2021/08/24 08:45:09;;;;;;;5.45;3.78;;;18.10;99.90;;;;;;5029784;28;20064;-38
2021/08/24 08:47:37;;;;;;;7.80;3.67;;;18.20;99.90;;;;;;5029952;28;20034;-39
2021/08/24 08:50:14;;;;;;;9.80;3.50;;;18.30;99.90;;;;;;5029358;28;20108;-40
2021/08/24 08:52:54;;;;;;;5.35;3.10;;;18.30;99.90;;;;;;5029562;28;20048;-39
2021/08/24 08:55:29;;;;;;;5.65;3.22;;;18.40;99.90;;;;;;5009397;28;20066;-40
2021/08/24 08:58:13;;;;;;;5.05;2.78;;;18.40;99.90;;;;;;5024353;28;20038;-39
2021/08/24 09:00:56;;;;;;;4.68;3.10;;;18.50;99.90;;;;;;5009485;28;20034;-41
2021/08/24 09:03:43;;;;;;;7.50;3.33;;;18.60;99.90;;;;;;5027053;28;20022;-40
2021/08/24 09:06:10;;;;;;;5.25;2.60;;;18.60;99.90;;;;;;5028942;28;20397;-36
2021/08/24 09:08:37;;;;;;;3.20;2.75;;;18.70;99.90;;;;;;5029486;28;20029;-41
2021/08/24 09:11:05;;;;;;;5.72;3.03;;;18.70;99.90;;;;;;5029182;28;20021;-41
2021/08/24 09:13:38;;;;;;;3.13;2.47;;;18.80;99.90;;;;;;5029603;28;20033;-40
2021/08/24 09:16:20;;;;;;;3.95;2.70;;;18.80;99.90;;;;;;5009424;28;20188;-40
2021/08/24 09:18:51;;;;;;;3.22;2.40;;;18.80;99.90;;;;;;5025569;28;20029;-37
2021/08/24 09:21:26;;;;;;;7.13;3.03;;;18.90;99.90;;;;;;5025837;28;20025;-39
2021/08/24 09:23:53;;;;;;;5.40;2.90;;;19.00;99.90;;;;;;5028315;28;20038;-36
2021/08/24 09:26:37;;;;;;;4.97;2.95;;;19.00;99.90;;;;;;5029273;28;20091;-38
2021/08/24 09:29:05;;;;;;;4.18;2.63;;;19.10;99.90;;;;;;5029052;28;20060;-40
2021/08/24 09:31:35;;;;;;;5.10;3.17;;;19.10;99.90;;;;;;5028467;28;20036;-40
2021/08/24 09:34:01;;;;;;;3.65;2.50;;;19.20;99.90;;;;;;5028302;28;20025;-40
2021/08/24 09:36:26;;;;;;;3.75;2.70;;;19.20;99.90;;;;;;5028888;28;20021;-41
2021/08/24 09:38:58;;;;;;;5.00;2.53;;;19.30;99.90;;;;;;5027312;28;20025;-39
2021/08/24 09:41:36;;;;;;;5.37;2.70;;;19.40;99.90;;;;;;5029240;28;20162;-39
2021/08/24 09:44:20;;;;;;;4.75;2.67;;;19.50;99.90;;;;;;5027519;28;20496;-37
2021/08/24 09:46:47;;;;;;;2.45;2.25;;;19.60;99.90;;;;;;5027576;28;20466;-38
2021/08/24 09:49:21;;;;;;;4.75;3.10;;;19.60;99.90;;;;;;5028591;28;20389;-39
2021/08/24 09:51:56;;;;;;;4.20;3.17;;;19.60;99.90;;;;;;5027479;28;20025;-40
2021/08/24 09:54:43;;;;;;;3.25;2.35;;;19.60;99.90;;;;;;5028869;28;20025;-40
2021/08/24 09:57:11;;;;;;;5.47;3.00;;;19.70;99.90;;;;;;5028402;28;20025;-36
2021/08/24 09:59:56;;;;;;;6.90;3.13;;;19.80;99.90;;;;;;5026832;28;20033;-37
2021/08/24 10:02:36;;;;;;;9.23;3.10;;;19.80;99.90;;;;;;5028790;28;20105;-34
2021/08/24 10:05:03;;;;;;;6.18;2.90;;;19.90;99.90;;;;;;5028522;28;20025;-37
2021/08/24 10:07:44;;;;;;;6.75;3.75;;;19.90;99.90;;;;;;5027937;28;20056;-39
2021/08/24 10:10:38;;;;;;;8.75;3.40;;;20.00;99.90;;;;;;5027996;28;20040;-38
2021/08/24 10:13:29;;;;;;;2.88;2.50;;;20.10;99.90;;;;;;5008865;28;20022;-39
2021/08/24 10:16:08;;;;;;;4.95;2.92;;;20.20;99.70;;;;;;5026769;28;20053;-38
2021/08/24 10:18:35;;;;;;;4.70;2.80;;;20.30;99.50;;;;;;5028801;28;20037;-41
2021/08/24 10:21:13;;;;;;;6.70;3.10;;;20.40;99.40;;;;;;5027045;28;20018;-39
2021/08/24 10:24:02;;;;;;;8.43;2.88;;;20.40;99.00;;;;;;5028294;28;20021;-38
2021/08/24 10:26:33;;;;;;;4.13;3.40;;;20.30;98.90;;;;;;5027780;28;20029;-42
2021/08/24 10:29:04;;;;;;;3.85;3.20;;;20.30;98.60;;;;;;5027419;28;20083;-42
2021/08/24 10:31:54;;;;;;;4.25;2.70;;;20.30;98.60;;;;;;5028349;28;20090;-41
2021/08/24 10:34:43;;;;;;;4.78;2.80;;;20.40;98.70;;;;;;5028429;28;20084;-39
2021/08/24 10:37:23;;;;;;;7.05;3.53;;;20.60;98.10;;;;;;5028352;28;20037;-36
2021/08/24 10:39:54;;;;;;;4.45;3.10;;;20.60;98.10;;;;;;5027904;28;20028;-40
2021/08/24 10:42:28;;;;;;;4.07;2.88;;;20.70;98.10;;;;;;5028255;28;20017;-37
2021/08/24 10:44:59;;;;;;;8.43;3.28;;;20.80;98.10;;;;;;5027550;28;20049;-36
2021/08/24 10:47:26;;;;;;;6.55;3.00;;;20.80;97.50;;;;;;5024581;28;20017;-37
2021/08/24 10:49:59;;;;;;;4.68;2.40;;;20.80;97.50;;;;;;5027052;28;20573;-37
2021/08/24 10:52:49;;;;;;;7.97;3.00;;;20.90;97.50;;;;;;5028020;28;20018;-39
2021/08/24 10:55:18;;;;;;;6.43;3.10;;;20.90;96.80;;;;;;5028015;28;20033;-37
2021/08/24 10:58:03;;;;;;;8.77;2.70;;;20.90;96.00;;;;;;5027773;28;20075;-40
2021/08/24 11:01:03;;;;;;;5.75;2.72;;;20.80;96.00;;;;;;5031205;28;20029;-40
2021/08/24 11:04:01;;;;;;;6.70;2.60;;;20.90;96.30;;;;;;5030619;28;20623;-42
2021/08/24 11:06:41;;;;;;;4.22;2.70;;;20.90;96.50;;;;;;5032491;28;20035;-40
2021/08/24 11:09:43;;;;;;;4.28;2.72;;;20.90;96.50;;;;;;5026248;28;20053;-42
2021/08/24 11:12:19;;;;;;;3.35;2.40;;;20.80;96.10;;;;;;5032133;28;20040;-36
2021/08/24 11:15:31;;;;;;;3.53;2.35;;;20.80;96.00;;;;;;5031953;28;20065;-38
2021/08/24 11:18:28;;;;;;;6.22;2.50;;;20.80;96.10;;;;;;5029620;28;20419;-38
2021/08/24 11:21:11;;;;;;;3.08;2.17;;;20.80;94.80;;;;;;5041130;28;20500;-39
2021/08/24 11:23:58;;;;;;;4.40;2.40;;;20.80;94.90;;;;;;5041211;28;20484;-39
2021/08/24 11:26:31;;;;;;;4.50;2.10;;;20.80;94.80;;;;;;5037112;28;20029;-40
2021/08/24 11:29:09;;;;;;;;;;;20.70;94.60;;;;;;5034985;28;20162;-40
2021/08/24 11:31:42;;;;;;;3.15;2.20;;;20.70;94.60;;;;;;5017441;28;19955;-41
2021/08/24 11:34:25;;;;;;;3.17;2.08;;;20.60;94.50;;;;;;5031842;28;20029;-42
2021/08/24 11:36:56;;;;;;;3.38;2.03;;;20.60;94.20;;;;;;5036183;28;20036;-37
2021/08/24 11:39:28;;;;;;;3.03;2.13;;;20.60;94.50;;;;;;5032723;28;20081;-40
2021/08/24 11:42:00;;;;;;;2.70;2.10;;;20.70;94.40;;;;;;5033312;28;20324;-40
2021/08/24 11:44:42;;;;;;;3.53;2.17;;;20.80;94.00;;;;;;5028933;28;20057;-42
2021/08/24 11:47:10;;;;;;;2.78;1.98;;;20.90;93.50;;;;;;5030178;28;20436;-36
2021/08/24 11:49:45;;;;;;;4.00;2.38;;;21.00;93.20;;;;;;5031902;28;20229;-41
2021/08/24 11:52:14;;;;;;;2.22;1.90;;;21.10;93.10;;;;;;5030068;28;20465;-39
2021/08/24 11:55:05;;;;;;;2.83;1.77;;;21.20;92.60;;;;;;5036411;28;20044;-37
2021/08/24 11:57:43;;;;;;;2.35;1.80;;;21.30;92.10;;;;;;5030512;28;20037;-42
2021/08/24 12:00:12;;;;;;;2.97;1.90;;;21.30;91.70;;;;;;5029204;28;20014;-42
2021/08/24 12:02:43;;;;;;;1.88;1.60;;;21.40;90.60;;;;;;5030755;28;20025;-40
2021/08/24 12:05:23;;;;;;;2.63;2.15;;;21.40;90.70;;;;;;5029820;28;20018;-41
2021/08/24 12:08:14;;;;;;;2.72;2.00;;;21.50;90.70;;;;;;5029187;28;20397;-40
2021/08/24 12:11:15;;;;;;;2.58;2.00;;;21.50;90.70;;;;;;5025563;28;20088;-36
2021/08/24 12:13:46;;;;;;;3.88;2.00;;;21.60;90.50;;;;;;5028693;28;20026;-39
2021/08/24 12:16:21;;;;;;;3.05;2.03;;;21.60;90.30;;;;;;5029113;28;20051;-42
2021/08/24 12:19:05;;;;;;;3.38;2.28;;;21.60;90.20;;;;;;5028499;28;20053;-38
2021/08/24 12:21:45;;;;;;;3.08;2.15;;;21.60;90.00;;;;;;5029538;28;20487;-38
2021/08/24 12:24:22;;;;;;;3.00;2.33;;;21.60;89.70;;;;;;5028450;28;20228;-40
2021/08/24 12:26:49;;;;;;;3.13;2.38;;;21.60;88.80;;;;;;5029117;28;20026;-40
2021/08/24 12:29:34;;;;;;;2.97;2.30;;;21.60;89.00;;;;;;5033056;28;20017;-39
2021/08/24 12:32:02;;;;;;;5.40;2.75;;;21.60;87.20;;;;;;5040417;28;20036;-39
2021/08/24 12:34:34;;;;;;;3.28;2.20;;;21.70;86.90;;;;;;5032058;28;20084;-41
2021/08/24 12:37:04;;;;;;;5.20;2.40;;;21.70;87.20;;;;;;5033337;28;20029;-41
2021/08/24 12:39:43;;;;;;;3.65;2.25;;;21.70;86.80;;;;;;5033777;28;20370;-43
2021/08/24 12:42:26;;;;;;;3.63;2.30;;;21.80;86.70;;;;;;5036937;28;20029;-41
2021/08/24 12:45:01;;;;;;;3.25;2.45;;;21.90;86.40;;;;;;5029516;28;20366;-38
2021/08/24 12:47:30;;;;;;;2.90;2.10;;;21.80;85.60;;;;;;5034129;28;20560;-38
2021/08/24 12:50:34;;;;;;;3.38;2.65;;;21.80;85.00;;;;;;5039448;28;20365;-38
2021/08/24 12:53:24;;;;;;;4.68;2.60;;;21.90;84.50;;;;;;5039167;28;20040;-38
2021/08/24 12:55:49;;;;;;;2.70;2.35;;;21.90;83.80;;;;;;5033335;28;20033;-42
2021/08/24 12:58:45;;;;;;;2.85;2.25;;;22.00;83.80;;;;;;5029448;28;20040;-41
2021/08/24 13:01:26;;;;;;;3.40;2.38;;;22.10;83.80;;;;;;5027925;28;20026;-40
2021/08/24 13:03:52;;;;;;;3.90;2.55;;;22.20;84.00;;;;;;5009428;28;20660;-42
2021/08/24 13:06:28;;;;;;;3.70;2.10;;;22.20;83.60;;;;;;5024629;28;20029;-40
2021/08/24 13:09:33;;;;;;;2.15;1.95;;;22.30;84.20;;;;;;5037713;28;20032;-39
2021/08/24 13:12:11;;;;;;;4.63;2.33;;;22.40;84.10;;;;;;5020477;28;20392;-40